Manistee, MI

10:27 PM EST on December 25, 2014 (GMT -0500)
Manistee County-Blacker | Change Station
CLOSE
Current Station
Airport
Location: Manistee,
Elevation: 620 ft
Nearby Weather Stations

Elev 620 ft 44.27 °N, 86.25 °W | Updated 12 minutes ago

Overcast
Overcast
34 °F
Feels Like 30 °F
N
5
Wind Variable Wind from ESE

Today
High -- | Low -- °F
--% Chance of Precip.
Yesterday
High -- | Low -- °F
Precip. -- in
8:18 AM 5:11 PM
Waxing Crescent, 21% visible
Pressure 29.97 in
Visibility 10.0 miles
Clouds Overcast 1700 ft
Windchill 30 °F
Dew Point 30 °F
Humidity 87%
Rainfall 0.00 in
Snow Depth Not available.
UV 0 out of 12
Pollen .10 out of 12
Air Quality Not available.
Flu Activity Not available.
METAR KMBL 260315Z AUTO 12004KT 10SM OVC017 01/M01 A2997 RMK AO1

More Conditions Fewer Conditions

Pressure 29.97 in
Visibility 10.0 miles
Clouds Overcast 1700 ft
Windchill 30 °F
Dew Point 30 °F
Humidity 87%
Rainfall 0.00 in
Snow Depth Not available.
UV 0 out of 12
Pollen .10 out of 12
Air Quality Not available.
Flu Activity Not available.
METAR KMBL 260315Z AUTO 12004KT 10SM OVC017 01/M01 A2997 RMK AO1

More Conditions Fewer Conditions

Nowcast | as of 10:00 PM EST on December 25, 2014

At 11 PM...mostly cloudy. Temperature 36. South winds 8 mph. At 1 am...mostly cloudy. Temperature 37. South winds 9 mph. At 3 am...partly cloudy. Temperature 36. South winds 8 mph. At 5 am...mostly cloudy. Temperature 36. South winds 8 mph.

×

10-Day Weather Forecast

Almanac

Astronomy

Dec. 25, 2014 Rise Set
Actual Time
Civil Twilight
Nautical Twilight
Astronomical Twilight
Moon
Length of Visible Light
Length of Day
Tomorrow will be .
, % of the Moon is Illuminated

Today's Extremes

State Highs State Lows

Community

WunderPhotos

Upload Photos

1,780,529 photos uploaded!

WunderBlogs® & News

Nearby

Air Quality

  Air Quality AQ Index Pollutant
Not available.

Snow Depth

Station Depth Elevation

Earthquake Activity

City Distance Mag. Time & Date
Minimum magnitude displayed is 2.5.

Coastal Water Temperatures

Place Temperature

Nearby Weather Stations